createdAt,value
2022-08-03T00:00:17.113Z,65.70
2022-08-03T00:02:51.202Z,65.85
2022-08-03T00:05:23.691Z,65.60
2022-08-03T00:07:56.165Z,65.74
2022-08-03T00:10:29.205Z,65.31
2022-08-03T00:13:01.859Z,65.43
2022-08-03T00:15:34.347Z,65.23
2022-08-03T00:18:08.580Z,65.00
2022-08-03T00:20:41.151Z,65.24
2022-08-03T00:23:13.748Z,64.93
2022-08-03T00:25:46.262Z,64.81
2022-08-03T00:28:18.745Z,64.95
2022-08-03T00:30:51.271Z,64.77
2022-08-03T00:33:25.897Z,65.09
2022-08-03T00:36:00.578Z,65.09
2022-08-03T00:38:33.096Z,64.90
2022-08-03T00:41:05.681Z,64.88
2022-08-03T00:43:38.320Z,64.80
2022-08-03T00:46:11.045Z,64.67
2022-08-03T00:48:44.816Z,64.80
2022-08-03T00:51:17.401Z,64.98
2022-08-03T00:53:50.014Z,64.42
2022-08-03T00:56:22.453Z,64.69
2022-08-03T00:58:58.138Z,64.56
2022-08-03T01:01:32.617Z,64.95
2022-08-03T01:04:06.778Z,64.54
2022-08-03T01:06:49.093Z,64.71
2022-08-03T01:09:31.222Z,64.84
2022-08-03T01:12:12.969Z,64.71
2022-08-03T01:14:52.108Z,64.89
2022-08-03T01:17:29.366Z,64.51
2022-08-03T01:20:07.224Z,64.97
2022-08-03T01:23:17.993Z,64.86
2022-08-03T01:26:09.307Z,65.05
2022-08-03T01:29:08.087Z,65.02
2022-08-03T01:32:59.600Z,65.32
2022-08-03T01:34:45.635Z,64.97
2022-08-03T01:37:25.100Z,65.22
2022-08-03T01:40:01.319Z,65.34
2022-08-03T01:42:38.058Z,65.41
2022-08-03T01:45:13.128Z,65.37
2022-08-03T01:47:49.622Z,65.66
2022-08-03T01:50:27.458Z,65.41
2022-08-03T01:53:00.655Z,65.79
2022-08-03T01:55:34.751Z,65.96
2022-08-03T01:58:08.649Z,65.90
2022-08-03T02:00:42.348Z,65.79
2022-08-03T02:03:17.648Z,65.66
2022-08-03T02:06:11.499Z,65.83
2022-08-03T02:08:47.877Z,66.28
2022-08-03T02:11:20.467Z,65.93
2022-08-03T02:13:55.064Z,66.19
2022-08-03T02:16:33.672Z,66.10
2022-08-03T02:19:08.645Z,66.23
2022-08-03T02:21:57.156Z,66.11
2022-08-03T02:24:33.895Z,66.20
2022-08-03T02:27:11.437Z,66.05
2022-08-03T02:29:47.370Z,66.43
2022-08-03T02:32:23.214Z,66.20
2022-08-03T02:34:59.721Z,66.19
2022-08-03T02:37:37.013Z,66.37
2022-08-03T02:40:16.956Z,66.47
2022-08-03T02:42:53.534Z,66.61
2022-08-03T02:45:28.140Z,66.45
2022-08-03T02:48:04.330Z,66.46
2022-08-03T02:50:39.532Z,66.28
2022-08-03T02:53:12.861Z,66.71
2022-08-03T02:55:47.859Z,66.49
2022-08-03T02:58:21.580Z,66.41
2022-08-03T03:00:55.343Z,66.51
2022-08-03T03:03:30.641Z,66.68
2022-08-03T03:06:11.069Z,66.49
2022-08-03T03:08:44.030Z,66.67
2022-08-03T03:11:19.208Z,66.63
2022-08-03T03:13:52.029Z,66.55
2022-08-03T03:16:26.820Z,66.58
2022-08-03T03:19:00.457Z,66.64
2022-08-03T03:21:35.568Z,66.60
2022-08-03T03:24:09.865Z,67.00
2022-08-03T03:26:43.629Z,66.78
2022-08-03T03:29:16.593Z,66.68
2022-08-03T03:31:49.478Z,66.51
2022-08-03T03:34:22.149Z,66.44
2022-08-03T03:36:57.716Z,66.32
2022-08-03T03:39:30.345Z,66.37
2022-08-03T03:42:03.045Z,66.27
2022-08-03T03:44:35.521Z,66.52
2022-08-03T03:47:08.091Z,66.37
2022-08-03T03:49:41.042Z,66.46
2022-08-03T03:52:16.985Z,66.25
2022-08-03T03:54:49.677Z,66.23
2022-08-03T03:57:22.003Z,66.43
2022-08-03T03:59:54.532Z,66.23
2022-08-03T04:02:27.687Z,66.23
2022-08-03T04:05:18.771Z,66.38
2022-08-03T04:08:17.662Z,66.44
2022-08-03T04:11:02.610Z,66.15
2022-08-03T04:13:38.962Z,66.58
2022-08-03T04:16:14.810Z,66.50
2022-08-03T04:18:57.908Z,66.77
2022-08-03T04:21:32.550Z,66.79
2022-08-03T04:24:09.740Z,67.02
2022-08-03T04:26:48.503Z,67.10
2022-08-03T04:29:55.406Z,67.05
2022-08-03T04:32:30.020Z,66.83
2022-08-03T04:35:02.917Z,66.85
2022-08-03T04:37:39.897Z,67.09
2022-08-03T04:40:20.410Z,67.17
2022-08-03T04:42:56.699Z,66.89
2022-08-03T04:45:30.741Z,66.80
2022-08-03T04:48:04.164Z,66.74
2022-08-03T04:50:36.858Z,66.84
2022-08-03T04:53:10.433Z,66.62
2022-08-03T04:55:44.941Z,66.55
2022-08-03T04:58:17.464Z,66.04
2022-08-03T05:00:52.227Z,65.82
2022-08-03T05:03:25.120Z,65.67
2022-08-03T05:06:01.980Z,65.00
2022-08-03T05:08:46.842Z,64.78
2022-08-03T05:11:21.463Z,64.18
2022-08-03T05:13:54.574Z,64.08
2022-08-03T05:16:27.338Z,63.82
2022-08-03T05:18:59.773Z,63.84
2022-08-03T05:21:50.347Z,63.58
2022-08-03T05:24:24.972Z,62.90
2022-08-03T05:26:58.913Z,62.99
2022-08-03T05:29:31.441Z,62.05
2022-08-03T05:32:08.150Z,61.66
2022-08-03T05:34:41.076Z,60.20
2022-08-03T05:37:13.686Z,59.71
2022-08-03T05:39:46.116Z,58.88
2022-08-03T05:42:19.978Z,58.62
2022-08-03T05:44:52.546Z,58.07
2022-08-03T05:47:31.306Z,56.93
2022-08-03T05:50:04.178Z,56.93
2022-08-03T05:52:36.576Z,56.63
2022-08-03T05:55:10.730Z,56.01
2022-08-03T05:57:46.384Z,55.22
2022-08-03T06:00:19.088Z,55.88
2022-08-03T06:02:51.480Z,54.93
2022-08-03T06:05:24.255Z,54.64
2022-08-03T06:07:56.840Z,54.70
2022-08-03T06:10:35.661Z,54.50
2022-08-03T06:13:11.585Z,54.72
2022-08-03T06:15:44.231Z,55.46
2022-08-03T06:18:16.757Z,54.95
2022-08-03T06:20:50.240Z,55.27
2022-08-03T06:23:26.297Z,55.39
2022-08-03T06:26:15.666Z,55.13
2022-08-03T06:28:52.424Z,55.13
2022-08-03T06:31:32.330Z,55.50
2022-08-03T06:34:32.699Z,55.32
2022-08-03T06:37:02.119Z,55.34
2022-08-03T06:39:35.169Z,55.61
2022-08-03T06:42:09.863Z,55.06
2022-08-03T06:44:44.320Z,55.94
2022-08-03T06:47:17.413Z,56.20
2022-08-03T06:50:12.652Z,56.89
2022-08-03T06:52:42.745Z,56.78
2022-08-03T06:55:15.702Z,56.85
2022-08-03T06:57:48.540Z,56.39
2022-08-03T07:00:22.776Z,56.46
2022-08-03T07:02:58.311Z,56.50
2022-08-03T07:05:33.596Z,56.80
2022-08-03T07:08:06.291Z,55.04
2022-08-03T07:10:38.981Z,55.00
2022-08-03T07:13:12.922Z,54.70
2022-08-03T07:15:55.602Z,54.12
2022-08-03T07:18:30.765Z,54.86
2022-08-03T07:21:03.833Z,54.74
2022-08-03T07:23:36.302Z,54.47
2022-08-03T07:26:08.789Z,54.60
2022-08-03T07:28:42.665Z,54.68
2022-08-03T07:31:16.594Z,54.77
2022-08-03T07:33:49.081Z,54.82
2022-08-03T07:36:21.603Z,54.79
2022-08-03T07:38:54.161Z,54.71
2022-08-03T07:41:26.733Z,54.44
2022-08-03T07:43:59.143Z,54.47
2022-08-03T07:46:35.036Z,54.73
2022-08-03T07:49:07.685Z,54.78
2022-08-03T07:51:40.501Z,54.46
2022-08-03T07:54:12.942Z,53.93
2022-08-03T07:57:04.352Z,54.59
2022-08-03T07:59:57.214Z,54.14
2022-08-03T08:02:33.717Z,53.87
2022-08-03T08:05:06.724Z,54.26
2022-08-03T08:07:39.565Z,53.77
2022-08-03T08:10:12.203Z,53.70
2022-08-03T08:12:45.641Z,54.00
2022-08-03T08:15:18.058Z,54.21
2022-08-03T08:17:54.138Z,53.50
2022-08-03T08:20:31.410Z,53.03
2022-08-03T08:23:09.627Z,52.82
2022-08-03T08:25:59.627Z,52.85
2022-08-03T08:28:33.751Z,52.03
2022-08-03T08:31:06.906Z,52.01
2022-08-03T08:36:33.723Z,51.92
2022-08-03T08:39:06.195Z,52.54
2022-08-03T08:41:39.013Z,52.16
2022-08-03T08:44:18.963Z,52.09
2022-08-03T08:46:54.041Z,52.26
2022-08-03T08:49:29.755Z,52.16
2022-08-03T08:52:05.138Z,52.49
2022-08-03T08:55:00.693Z,52.18
2022-08-03T08:57:42.958Z,51.63
2022-08-03T09:00:17.304Z,51.56
2022-08-03T09:02:49.805Z,51.75
2022-08-03T09:05:41.361Z,52.03
2022-08-03T09:08:17.012Z,51.73
2022-08-03T09:10:49.730Z,51.77
2022-08-03T09:13:22.866Z,51.85
2022-08-03T09:16:13.253Z,52.76
2022-08-03T09:18:47.698Z,53.10
2022-08-03T09:21:31.779Z,53.14
2022-08-03T09:24:13.013Z,53.19
2022-08-03T09:26:52.223Z,53.63
2022-08-03T09:29:26.642Z,54.34
2022-08-03T09:32:02.576Z,54.13
2022-08-03T09:34:35.337Z,54.41
2022-08-03T09:37:15.156Z,54.41
2022-08-03T09:39:48.205Z,54.33
2022-08-03T09:42:23.567Z,54.80
2022-08-03T09:44:58.259Z,54.60
2022-08-03T09:47:32.494Z,55.22
2022-08-03T09:50:06.931Z,55.29
2022-08-03T09:52:52.275Z,54.97
2022-08-03T09:56:34.034Z,55.00
2022-08-03T09:58:18.462Z,55.40
2022-08-03T10:00:56.264Z,55.04
2022-08-03T10:03:31.109Z,55.29
2022-08-03T10:06:16.296Z,55.47
2022-08-03T10:09:07.179Z,55.53
2022-08-03T10:11:42.332Z,55.75
2022-08-03T10:14:21.325Z,55.63
2022-08-03T10:16:53.913Z,54.69
2022-08-03T10:19:26.486Z,54.68
2022-08-03T10:22:04.511Z,54.40
2022-08-03T10:24:44.936Z,54.03
2022-08-03T10:27:19.784Z,53.83
2022-08-03T10:29:55.300Z,53.40
2022-08-03T10:32:30.894Z,53.64
2022-08-03T10:35:20.096Z,53.55
2022-08-03T10:37:58.696Z,53.34
2022-08-03T10:40:51.100Z,53.08
2022-08-03T10:43:34.129Z,52.67
2022-08-03T10:46:08.677Z,52.59
2022-08-03T10:48:41.645Z,52.65
2022-08-03T10:51:14.608Z,52.36
2022-08-03T10:53:55.522Z,52.40
2022-08-03T10:57:03.445Z,51.89
2022-08-03T11:00:03.802Z,52.21
2022-08-03T11:03:11.352Z,52.89
2022-08-03T11:05:45.243Z,51.53
2022-08-03T11:08:28.786Z,51.31
2022-08-03T11:11:03.462Z,51.61
2022-08-03T11:13:37.424Z,51.48
2022-08-03T11:16:22.330Z,52.15
2022-08-03T11:18:59.815Z,52.12
2022-08-03T11:21:54.218Z,52.69
2022-08-03T11:24:57.814Z,52.80
2022-08-03T11:27:32.213Z,52.47
2022-08-03T11:30:08.280Z,52.61
2022-08-03T11:32:57.041Z,52.92
2022-08-03T11:35:31.403Z,52.60
2022-08-03T11:38:10.257Z,53.23
2022-08-03T11:40:47.435Z,53.03
2022-08-03T11:43:49.871Z,53.65
2022-08-03T11:46:28.657Z,53.46
2022-08-03T11:49:09.873Z,53.39
2022-08-03T11:51:43.544Z,53.70
2022-08-03T11:54:20.488Z,52.65
2022-08-03T11:56:53.217Z,52.79
2022-08-03T11:59:32.648Z,52.74
2022-08-03T12:02:10.402Z,52.32
2022-08-03T12:04:52.456Z,52.00
2022-08-03T12:08:03.826Z,51.41
2022-08-03T12:10:21.277Z,51.41
2022-08-03T12:12:55.849Z,51.38
2022-08-03T12:15:30.117Z,51.55
2022-08-03T12:18:12.870Z,51.57
2022-08-03T12:20:45.803Z,51.11
2022-08-03T12:23:20.027Z,51.71
2022-08-03T12:25:52.745Z,51.68
2022-08-03T12:28:37.322Z,51.50
2022-08-03T12:31:10.866Z,51.36
2022-08-03T12:34:02.898Z,51.97
2022-08-03T12:36:36.630Z,51.44
2022-08-03T12:39:11.969Z,51.28
2022-08-03T12:41:45.043Z,51.46
2022-08-03T12:44:17.647Z,51.62
2022-08-03T12:46:58.870Z,51.80
2022-08-03T12:49:45.480Z,51.65
2022-08-03T12:52:19.626Z,51.26
2022-08-03T12:54:56.441Z,51.21
2022-08-03T12:57:41.449Z,51.50
2022-08-03T13:00:21.409Z,50.88
2022-08-03T13:03:38.264Z,50.84
2022-08-03T13:05:57.845Z,51.25
2022-08-03T13:08:30.358Z,51.38
2022-08-03T13:11:19.223Z,51.75
2022-08-03T13:13:52.808Z,51.21
2022-08-03T13:16:25.494Z,50.66
2022-08-03T13:18:58.000Z,50.59
2022-08-03T13:21:33.232Z,50.72
2022-08-03T13:24:06.139Z,50.63
2022-08-03T13:26:38.586Z,50.62
2022-08-03T13:29:11.271Z,50.62
2022-08-03T13:31:51.145Z,50.69
2022-08-03T13:34:24.198Z,50.53
2022-08-03T13:37:13.433Z,51.10
2022-08-03T13:39:57.828Z,51.45
2022-08-03T13:42:34.331Z,51.08
2022-08-03T13:45:08.912Z,51.54
2022-08-03T13:47:41.538Z,51.30
2022-08-03T13:50:15.465Z,51.11
2022-08-03T13:52:49.525Z,51.77
2022-08-03T13:55:22.145Z,51.55
2022-08-03T13:58:11.477Z,51.75
2022-08-03T14:00:44.130Z,52.26
2022-08-03T14:03:16.708Z,52.38
2022-08-03T14:05:49.180Z,51.91
2022-08-03T14:08:22.934Z,52.54
2022-08-03T14:10:55.462Z,52.41
2022-08-03T14:13:28.097Z,52.28
2022-08-03T14:16:00.565Z,52.86
2022-08-03T14:18:40.291Z,52.81
2022-08-03T14:21:14.362Z,52.59
2022-08-03T14:23:48.734Z,52.57
2022-08-03T14:26:21.161Z,52.95
2022-08-03T14:28:53.711Z,53.25
2022-08-03T14:32:09.497Z,53.24
2022-08-03T14:34:19.424Z,52.97
2022-08-03T14:36:51.906Z,52.85
2022-08-03T14:39:26.158Z,52.67
2022-08-03T14:41:58.741Z,52.58
2022-08-03T14:44:31.259Z,52.71
2022-08-03T14:47:03.741Z,52.67
2022-08-03T14:50:30.973Z,52.29
2022-08-03T14:52:28.644Z,52.60
2022-08-03T14:55:02.577Z,52.47
2022-08-03T14:57:35.721Z,52.54
2022-08-03T15:00:09.600Z,52.62
2022-08-03T15:02:42.265Z,53.00
2022-08-03T15:05:15.606Z,52.83
2022-08-03T15:07:48.090Z,52.48
2022-08-03T15:10:21.962Z,52.70
2022-08-03T15:13:03.105Z,52.51
2022-08-03T15:15:35.744Z,52.49
2022-08-03T15:18:08.997Z,53.22
2022-08-03T15:20:46.348Z,53.11
2022-08-03T15:23:19.615Z,53.20
2022-08-03T15:26:29.501Z,53.56
2022-08-03T15:28:46.114Z,53.48
2022-08-03T15:31:22.206Z,54.13
2022-08-03T15:33:54.789Z,53.87
2022-08-03T15:36:27.338Z,54.50
2022-08-03T15:38:59.821Z,54.55
2022-08-03T15:41:33.686Z,54.63
2022-08-03T15:44:09.206Z,54.92
2022-08-03T15:46:41.981Z,55.24
2022-08-03T15:49:14.614Z,55.56
2022-08-03T15:51:47.413Z,55.59
2022-08-03T15:54:19.941Z,55.85
2022-08-03T15:56:53.968Z,55.80
2022-08-03T15:59:26.363Z,56.12
2022-08-03T16:01:59.024Z,56.01
2022-08-03T16:04:31.654Z,56.23
2022-08-03T16:07:04.587Z,56.53
2022-08-03T16:09:42.508Z,56.85
2022-08-03T16:12:17.656Z,57.13
2022-08-03T16:14:53.935Z,57.76
2022-08-03T16:17:26.738Z,57.52
2022-08-03T16:19:59.387Z,58.18
2022-08-03T16:22:32.288Z,58.12
2022-08-03T16:25:06.445Z,58.29
2022-08-03T16:27:56.766Z,58.99
2022-08-03T16:30:41.082Z,59.24
2022-08-03T16:33:17.305Z,59.46
2022-08-03T16:35:50.505Z,59.30
2022-08-03T16:38:23.224Z,60.11
2022-08-03T16:40:55.652Z,60.04
2022-08-03T16:43:29.547Z,60.78
2022-08-03T16:46:02.268Z,61.00
2022-08-03T16:48:34.865Z,61.49
2022-08-03T16:51:07.401Z,61.26
2022-08-03T16:54:08.062Z,62.08
2022-08-03T16:56:32.314Z,61.97
2022-08-03T16:59:10.402Z,62.18
2022-08-03T17:01:47.106Z,62.76
2022-08-03T17:04:19.703Z,62.56
2022-08-03T17:06:52.542Z,63.19
2022-08-03T17:09:25.080Z,63.25
2022-08-03T17:11:57.700Z,63.12
2022-08-03T17:14:31.450Z,63.14
2022-08-03T17:17:08.813Z,63.56
2022-08-03T17:19:54.173Z,63.38
2022-08-03T17:22:32.266Z,63.58
2022-08-03T17:25:07.617Z,64.07
2022-08-03T17:28:48.767Z,63.64
2022-08-03T17:30:56.062Z,64.09
2022-08-03T17:33:35.547Z,64.00
2022-08-03T17:36:08.610Z,64.11
2022-08-03T17:38:43.102Z,64.53
2022-08-03T17:41:16.655Z,64.83
2022-08-03T17:44:15.219Z,64.67
2022-08-03T17:46:48.428Z,65.14
2022-08-03T17:49:25.229Z,65.29
2022-08-03T17:52:03.035Z,65.36
2022-08-03T17:55:50.608Z,65.19
2022-08-03T17:58:02.288Z,65.21
2022-08-03T18:00:55.942Z,65.80
2022-08-03T18:03:59.063Z,65.93
2022-08-03T18:06:37.057Z,65.78
2022-08-03T18:10:03.312Z,66.23
2022-08-03T18:12:10.101Z,66.44
2022-08-03T18:14:57.251Z,66.49
2022-08-03T18:17:58.255Z,66.88
2022-08-03T18:20:41.033Z,67.21
2022-08-03T18:23:25.318Z,66.98
2022-08-03T18:26:10.675Z,66.92
2022-08-03T18:28:45.109Z,67.09
2022-08-03T18:31:33.198Z,67.27
2022-08-03T18:34:16.411Z,67.55
2022-08-03T18:37:07.867Z,67.42
2022-08-03T18:39:49.458Z,67.33
2022-08-03T18:42:25.588Z,67.59
2022-08-03T18:44:59.546Z,67.72
2022-08-03T18:47:57.281Z,67.93
2022-08-03T18:50:36.726Z,67.82
2022-08-03T18:53:19.751Z,67.89
2022-08-03T18:56:02.129Z,68.07
2022-08-03T18:58:44.163Z,68.05
2022-08-03T19:01:59.581Z,68.07
2022-08-03T19:04:31.226Z,68.15
2022-08-03T19:07:08.071Z,68.45
2022-08-03T19:09:48.321Z,68.57
2022-08-03T19:12:31.179Z,68.97
2022-08-03T19:15:10.614Z,69.16
2022-08-03T19:17:52.842Z,69.28
2022-08-03T19:20:28.628Z,69.37
2022-08-03T19:23:01.366Z,69.15
2022-08-03T19:25:40.323Z,69.22
2022-08-03T19:28:13.231Z,69.29
2022-08-03T19:30:53.593Z,69.41
2022-08-03T19:33:29.787Z,69.37
2022-08-03T19:36:06.051Z,69.52
2022-08-03T19:38:44.137Z,69.62
2022-08-03T19:41:19.487Z,69.76
2022-08-03T19:43:57.629Z,69.64
2022-08-03T19:46:34.095Z,69.96
2022-08-03T19:49:15.075Z,69.93
2022-08-03T19:51:58.892Z,70.17
2022-08-03T19:54:39.703Z,69.86
2022-08-03T19:57:28.643Z,69.80
2022-08-03T20:02:54.453Z,70.02
2022-08-03T20:05:27.262Z,70.20
2022-08-03T20:08:01.630Z,70.10
2022-08-03T20:10:34.674Z,69.92
2022-08-03T20:13:08.946Z,70.21
2022-08-03T20:15:41.486Z,70.02
2022-08-03T20:18:16.560Z,70.17
2022-08-03T20:20:52.610Z,70.11
2022-08-03T20:23:37.222Z,70.23
2022-08-03T20:26:14.609Z,70.27
2022-08-03T20:28:51.276Z,70.29
2022-08-03T20:31:32.454Z,70.49
2022-08-03T20:34:09.242Z,70.55
2022-08-03T20:36:42.709Z,70.46
2022-08-03T20:39:15.236Z,70.68
2022-08-03T20:41:47.812Z,70.68
2022-08-03T20:44:25.743Z,70.71
2022-08-03T20:47:00.725Z,70.45
2022-08-03T20:49:45.990Z,70.53
2022-08-03T20:52:19.397Z,70.52
2022-08-03T20:54:52.492Z,70.61
2022-08-03T20:57:25.350Z,70.85
2022-08-03T21:00:00.289Z,70.69
2022-08-03T21:02:33.813Z,70.96
2022-08-03T21:05:10.490Z,70.83
2022-08-03T21:08:05.255Z,71.22
2022-08-03T21:10:42.123Z,71.13
2022-08-03T21:13:03.270Z,69.89
2022-08-03T21:16:06.493Z,71.11
2022-08-03T21:18:50.440Z,70.70
2022-08-03T21:21:23.620Z,70.75
2022-08-03T21:23:58.660Z,71.09
2022-08-03T21:26:33.906Z,71.08
2022-08-03T21:29:06.755Z,70.99
2022-08-03T21:31:41.301Z,71.08
2022-08-03T21:34:13.896Z,70.92
2022-08-03T21:36:46.550Z,71.04
2022-08-03T21:39:19.193Z,71.15
2022-08-03T21:41:51.622Z,71.13
2022-08-03T21:44:28.984Z,71.15
2022-08-03T21:47:03.880Z,71.58
2022-08-03T21:50:07.566Z,71.35
2022-08-03T21:52:31.761Z,71.18
2022-08-03T21:55:06.201Z,71.50
2022-08-03T21:57:42.213Z,71.08
2022-08-03T22:00:17.680Z,71.25
2022-08-03T22:02:55.393Z,71.31
2022-08-03T22:05:43.051Z,71.59
2022-08-03T22:08:16.958Z,71.39
2022-08-03T22:10:49.381Z,71.95
2022-08-03T22:13:43.867Z,71.81
2022-08-03T22:16:14.984Z,71.57
2022-08-03T22:18:49.054Z,71.78
2022-08-03T22:21:28.076Z,71.64
2022-08-03T22:24:09.496Z,71.51
2022-08-03T22:27:03.302Z,71.79
2022-08-03T22:29:39.928Z,71.58
2022-08-03T22:32:12.337Z,71.34
2022-08-03T22:34:47.734Z,71.64
2022-08-03T22:37:25.209Z,71.36
2022-08-03T22:39:59.031Z,71.74
2022-08-03T22:42:31.627Z,71.39
2022-08-03T22:45:07.235Z,71.25
2022-08-03T22:47:41.441Z,71.41
2022-08-03T22:50:32.689Z,71.69
2022-08-03T22:53:07.093Z,71.81
2022-08-03T22:55:39.769Z,71.59
2022-08-03T22:58:15.647Z,71.98
2022-08-03T23:00:53.760Z,71.85
2022-08-03T23:04:00.084Z,71.92
2022-08-03T23:06:27.265Z,71.85
2022-08-03T23:09:00.764Z,72.09
2022-08-03T23:11:37.670Z,71.61
2022-08-03T23:14:18.725Z,71.75
2022-08-03T23:16:54.413Z,71.96
2022-08-03T23:19:27.801Z,72.15
2022-08-03T23:22:28.608Z,72.33
2022-08-03T23:25:04.869Z,71.96
2022-08-03T23:27:40.577Z,72.31
2022-08-03T23:30:14.096Z,72.30
2022-08-03T23:32:48.722Z,72.16
2022-08-03T23:36:28.467Z,71.96
2022-08-03T23:38:40.529Z,72.06
2022-08-03T23:41:13.795Z,71.84
2022-08-03T23:43:51.860Z,72.36
2022-08-03T23:46:27.517Z,71.72
2022-08-03T23:49:00.359Z,71.82
2022-08-03T23:51:42.398Z,71.88
2022-08-03T23:54:26.892Z,72.11
2022-08-03T23:57:08.802Z,71.91
2022-08-03T23:59:57.119Z,71.31
